createdAt,value
2018-04-10T00:01:49.653Z,46.30
2018-04-10T00:04:15.717Z,37.58
2018-04-10T00:06:41.748Z,39.20
2018-04-10T00:09:07.756Z,38.13
2018-04-10T00:11:33.773Z,33.40
2018-04-10T00:13:59.829Z,35.95
2018-04-10T00:16:25.914Z,46.60
2018-04-10T00:18:52.076Z,34.63
2018-04-10T00:21:18.096Z,40.17
2018-04-10T00:23:44.109Z,40.25
2018-04-10T00:26:10.212Z,48.00
2018-04-10T00:28:36.263Z,48.45
2018-04-10T00:31:02.361Z,40.47
2018-04-10T00:33:28.439Z,40.50
2018-04-10T00:35:54.699Z,41.45
2018-04-10T00:38:20.750Z,45.12
2018-04-10T00:40:46.789Z,40.50
2018-04-10T00:43:12.792Z,48.70
2018-04-10T00:45:39.258Z,37.23
2018-04-10T00:48:05.480Z,38.67
2018-04-10T00:50:31.516Z,40.58
2018-04-10T00:53:09.624Z,51.37
2018-04-10T00:55:35.696Z,39.42
2018-04-10T00:58:01.784Z,46.90
2018-04-10T01:00:27.809Z,50.67
2018-04-10T01:02:53.904Z,41.97
2018-04-10T01:05:20.005Z,40.65
2018-04-10T01:07:46.072Z,54.33
2018-04-10T01:10:12.160Z,48.87
2018-04-10T01:12:38.211Z,48.85
2018-04-10T01:15:04.234Z,39.00
2018-04-10T01:17:30.315Z,41.22
2018-04-10T01:19:56.564Z,46.42
2018-04-10T01:22:22.758Z,39.92
2018-04-10T01:24:48.831Z,42.80
2018-04-10T01:27:14.892Z,40.20
2018-04-10T01:29:41.068Z,39.20
2018-04-10T01:32:07.174Z,44.63
2018-04-10T01:34:33.205Z,54.50
2018-04-10T01:36:59.226Z,52.28
2018-04-10T01:39:25.433Z,41.08
2018-04-10T01:41:51.457Z,55.83
2018-04-10T01:44:17.455Z,43.95
2018-04-10T01:46:43.525Z,55.78
2018-04-10T01:49:09.543Z,56.45
2018-04-10T01:51:35.687Z,53.60
2018-04-10T01:54:01.695Z,52.92
2018-04-10T01:56:27.686Z,51.33
2018-04-10T01:58:53.728Z,53.00
2018-04-10T02:01:19.730Z,57.92
2018-04-10T02:03:45.787Z,52.33
2018-04-10T02:06:11.827Z,53.95
2018-04-10T02:08:37.933Z,58.22
2018-04-10T02:11:04.051Z,46.28
2018-04-10T02:13:30.040Z,61.72
2018-04-10T02:15:56.133Z,57.75
2018-04-10T02:18:22.131Z,57.55
2018-04-10T02:20:48.241Z,44.88
2018-04-10T02:23:14.493Z,56.47
2018-04-10T02:25:40.706Z,43.67
2018-04-10T02:28:06.739Z,54.13
2018-04-10T02:30:32.765Z,42.70
2018-04-10T02:32:58.848Z,59.58
2018-04-10T02:35:25.019Z,56.05
2018-04-10T02:37:51.117Z,48.53
2018-04-10T02:40:17.151Z,45.53
2018-04-10T02:42:43.251Z,61.75
2018-04-10T02:45:09.339Z,58.58
2018-04-10T02:47:35.363Z,46.97
2018-04-10T02:50:01.350Z,61.83
2018-04-10T02:52:27.375Z,64.37
2018-04-10T02:54:53.393Z,50.35
2018-04-10T02:57:19.437Z,64.85
2018-04-10T02:59:45.460Z,61.55
2018-04-10T03:02:11.570Z,61.13
2018-04-10T03:04:37.582Z,42.13
2018-04-10T03:07:03.573Z,63.08
2018-04-10T03:09:29.592Z,59.33
2018-04-10T03:11:55.628Z,58.25
2018-04-10T03:14:21.628Z,76.62
2018-04-10T03:16:47.690Z,61.80
2018-04-10T03:19:13.734Z,76.55
2018-04-10T03:21:39.760Z,71.18
2018-04-10T03:24:06.055Z,105.87
2018-04-10T03:26:32.056Z,85.53
2018-04-10T03:28:58.072Z,122.33
2018-04-10T03:31:24.097Z,90.10
2018-04-10T03:33:50.168Z,114.53
2018-04-10T03:36:16.337Z,114.00
2018-04-10T03:38:42.367Z,126.38
2018-04-10T03:41:08.375Z,126.75
2018-04-10T03:43:34.487Z,126.40
2018-04-10T03:46:00.558Z,126.80
2018-04-10T03:48:26.614Z,123.00
2018-04-10T03:50:52.652Z,100.93
2018-04-10T03:53:18.775Z,100.70
2018-04-10T03:55:44.920Z,102.60
2018-04-10T03:58:10.984Z,103.62
2018-04-10T04:00:37.029Z,104.65
2018-04-10T04:03:03.109Z,102.53
2018-04-10T04:05:29.220Z,107.72
2018-04-10T04:07:55.315Z,95.28
2018-04-10T04:10:21.363Z,103.43
2018-04-10T04:12:47.357Z,98.90
2018-04-10T04:15:13.463Z,106.43
2018-04-10T04:17:40.471Z,98.87
2018-04-10T04:20:18.762Z,116.95
2018-04-10T04:22:44.823Z,106.35
2018-04-10T04:25:10.859Z,104.40
2018-04-10T04:27:36.907Z,106.80
2018-04-10T04:30:03.131Z,107.33
2018-04-10T04:32:29.635Z,102.97
2018-04-10T04:34:55.695Z,106.20
2018-04-10T04:37:21.735Z,100.53
2018-04-10T04:39:47.772Z,99.78
2018-04-10T04:42:13.786Z,97.23
2018-04-10T04:44:39.787Z,100.30
2018-04-10T04:47:05.813Z,102.12
2018-04-10T04:49:31.962Z,98.82
2018-04-10T04:51:58.007Z,98.78
2018-04-10T04:54:24.008Z,98.57
2018-04-10T04:56:50.104Z,97.13
2018-04-10T04:59:16.138Z,98.25
2018-04-10T05:01:42.232Z,96.68
2018-04-10T05:04:08.283Z,110.22
2018-04-10T05:06:34.363Z,99.07
2018-04-10T05:09:00.631Z,103.07
2018-04-10T05:11:26.868Z,97.07
2018-04-10T05:13:53.036Z,92.60
2018-04-10T05:16:19.043Z,90.22
2018-04-10T05:18:45.123Z,88.43
2018-04-10T05:21:12.835Z,84.93
2018-04-10T05:23:39.493Z,90.68
2018-04-10T05:26:06.685Z,84.72
2018-04-10T05:28:33.389Z,72.68
2018-04-10T05:30:59.902Z,74.45
2018-04-10T05:33:27.856Z,77.47
2018-04-10T05:35:54.263Z,80.32
2018-04-10T05:38:20.290Z,78.97
2018-04-10T05:40:46.332Z,75.87
2018-04-10T05:43:12.502Z,72.97
2018-04-10T05:45:38.764Z,73.60
2018-04-10T05:48:05.091Z,72.60
2018-04-10T05:50:31.107Z,67.90
2018-04-10T05:52:57.135Z,73.95
2018-04-10T05:55:23.482Z,68.07
2018-04-10T05:57:49.525Z,66.12
2018-04-10T06:00:15.608Z,64.77
2018-04-10T06:02:41.711Z,61.45
2018-04-10T06:05:07.768Z,62.47
2018-04-10T06:07:34.817Z,62.07
2018-04-10T06:10:01.099Z,60.20
2018-04-10T06:12:27.170Z,58.00
2018-04-10T06:14:53.262Z,58.47
2018-04-10T06:17:19.335Z,58.10
2018-04-10T06:19:45.491Z,55.93
2018-04-10T06:22:11.597Z,54.97
2018-04-10T06:24:37.630Z,51.73
2018-04-10T06:27:03.757Z,53.50
2018-04-10T06:29:29.784Z,50.53
2018-04-10T06:31:55.967Z,44.87
2018-04-10T06:34:22.031Z,45.03
2018-04-10T06:36:48.116Z,45.93
2018-04-10T06:39:14.237Z,40.63
2018-04-10T06:41:40.245Z,36.37
2018-04-10T06:44:06.300Z,34.90
2018-04-10T06:46:32.441Z,33.90
2018-04-10T06:48:58.880Z,35.90
2018-04-10T06:51:25.164Z,36.40
2018-04-10T06:53:51.313Z,34.03
2018-04-10T06:56:17.365Z,33.53
2018-04-10T06:58:43.380Z,33.10
2018-04-10T07:01:09.448Z,33.67
2018-04-10T07:03:35.516Z,34.63
2018-04-10T07:06:01.572Z,32.67
2018-04-10T07:08:27.621Z,34.73
2018-04-10T07:10:53.733Z,32.60
2018-04-10T07:13:19.763Z,33.27
2018-04-10T07:15:45.885Z,34.47
2018-04-10T07:18:11.937Z,33.70
2018-04-10T07:20:37.980Z,28.27
2018-04-10T07:23:04.004Z,34.23
2018-04-10T07:25:30.072Z,31.33
2018-04-10T07:27:56.377Z,28.93
2018-04-10T07:30:22.479Z,27.97
2018-04-10T07:35:21.388Z,30.87
2018-04-10T07:37:47.397Z,31.33
2018-04-10T07:40:13.504Z,32.00
2018-04-10T07:42:39.544Z,31.83
2018-04-10T07:45:05.626Z,28.77
2018-04-10T07:47:31.663Z,27.67
2018-04-10T07:49:58.200Z,26.63
2018-04-10T07:52:24.218Z,28.30
2018-04-10T07:54:50.330Z,28.20
2018-04-10T07:57:16.380Z,23.93
2018-04-10T07:59:42.410Z,23.03
2018-04-10T08:02:08.504Z,23.07
2018-04-10T08:04:34.704Z,20.57
2018-04-10T08:07:00.889Z,22.17
2018-04-10T08:09:27.028Z,21.03
2018-04-10T08:11:53.061Z,21.57
2018-04-10T08:14:19.188Z,23.23
2018-04-10T08:16:45.785Z,21.03
2018-04-10T08:19:11.822Z,20.97
2018-04-10T08:21:37.858Z,22.30
2018-04-10T08:24:03.883Z,18.37
2018-04-10T08:26:29.955Z,17.63
2018-04-10T08:28:55.990Z,18.47
2018-04-10T08:31:22.057Z,17.83
2018-04-10T08:33:48.167Z,17.73
2018-04-10T08:36:14.240Z,17.93
2018-04-10T08:38:40.281Z,17.80
2018-04-10T08:41:06.381Z,17.07
2018-04-10T08:43:32.456Z,15.97
2018-04-10T08:45:58.615Z,18.53
2018-04-10T08:48:24.645Z,17.13
2018-04-10T08:50:50.786Z,19.03
2018-04-10T08:53:17.435Z,17.33
2018-04-10T08:55:43.465Z,15.23
2018-04-10T08:58:10.555Z,15.97
2018-04-10T09:00:36.677Z,14.87
2018-04-10T09:03:02.836Z,16.00
2018-04-10T09:05:29.029Z,16.70
2018-04-10T09:07:55.059Z,16.13
2018-04-10T09:10:21.148Z,13.33
2018-04-10T09:12:48.200Z,13.20
2018-04-10T09:15:14.219Z,13.87
2018-04-10T09:17:40.208Z,15.10
2018-04-10T09:20:06.267Z,13.63
2018-04-10T09:22:32.290Z,14.07
2018-04-10T09:24:58.779Z,12.07
2018-04-10T09:27:24.885Z,12.67
2018-04-10T09:29:50.939Z,13.77
2018-04-10T09:32:16.994Z,11.57
2018-04-10T09:34:43.161Z,12.13
2018-04-10T09:37:09.239Z,12.47
2018-04-10T09:39:35.269Z,12.57
2018-04-10T09:42:01.333Z,12.23
2018-04-10T09:44:27.364Z,12.27
2018-04-10T09:46:53.399Z,11.20
2018-04-10T09:49:19.432Z,10.53
2018-04-10T09:51:45.530Z,9.53
2018-04-10T09:54:11.573Z,9.93
2018-04-10T09:56:37.580Z,8.73
2018-04-10T09:59:03.610Z,9.73
2018-04-10T10:01:29.682Z,11.87
2018-04-10T10:03:55.731Z,12.10
2018-04-10T10:06:21.765Z,12.00
2018-04-10T10:08:47.764Z,15.30
2018-04-10T10:11:13.810Z,12.53
2018-04-10T10:13:39.848Z,11.93
2018-04-10T10:16:05.934Z,11.17
2018-04-10T10:18:31.960Z,13.07
2018-04-10T10:20:58.204Z,12.40
2018-04-10T10:23:24.619Z,10.67
2018-04-10T10:25:50.711Z,12.27
2018-04-10T10:28:16.724Z,13.63
2018-04-10T10:30:42.987Z,11.80
2018-04-10T10:33:09.110Z,12.77
2018-04-10T10:35:35.173Z,13.23
2018-04-10T10:38:01.200Z,12.83
2018-04-10T10:40:27.189Z,13.23
2018-04-10T10:42:53.469Z,11.97
2018-04-10T10:45:19.475Z,12.87
2018-04-10T10:47:45.615Z,12.20
2018-04-10T10:50:11.683Z,11.07
2018-04-10T10:52:37.704Z,11.60
2018-04-10T10:55:03.736Z,12.67
2018-04-10T10:57:29.762Z,10.83
2018-04-10T10:59:55.865Z,11.50
2018-04-10T11:02:21.898Z,13.17
2018-04-10T11:04:48.029Z,11.87
2018-04-10T11:07:14.073Z,12.03
2018-04-10T11:09:40.103Z,12.40
2018-04-10T11:12:06.106Z,11.77
2018-04-10T11:14:32.149Z,10.80
2018-04-10T11:16:58.160Z,11.43
2018-04-10T11:19:24.266Z,12.40
2018-04-10T11:21:50.244Z,12.03
2018-04-10T11:24:16.281Z,11.40
2018-04-10T11:26:42.391Z,10.20
2018-04-10T11:29:08.416Z,9.77
2018-04-10T11:31:34.456Z,9.40
2018-04-10T11:34:01.513Z,8.87
2018-04-10T11:36:27.527Z,13.07
2018-04-10T11:38:53.582Z,12.37
2018-04-10T11:41:19.609Z,12.73
2018-04-10T11:43:45.663Z,12.73
2018-04-10T11:46:11.712Z,16.53
2018-04-10T11:48:37.724Z,14.47
2018-04-10T11:51:03.794Z,14.03
2018-04-10T11:53:29.896Z,14.63
2018-04-10T11:55:55.948Z,16.20
2018-04-10T11:58:21.983Z,14.37
2018-04-10T12:00:47.979Z,17.10
2018-04-10T12:03:14.017Z,13.40
2018-04-10T12:05:40.082Z,13.97
2018-04-10T12:08:06.216Z,13.27
2018-04-10T12:10:32.236Z,13.53
2018-04-10T12:12:58.252Z,13.40
2018-04-10T12:15:24.344Z,13.50
2018-04-10T12:17:50.412Z,13.87
2018-04-10T12:20:16.439Z,13.93
2018-04-10T12:22:42.546Z,13.73
2018-04-10T12:25:08.654Z,13.50
2018-04-10T12:27:34.712Z,14.17
2018-04-10T12:30:00.764Z,14.67
2018-04-10T12:32:27.038Z,13.67
2018-04-10T12:34:53.400Z,13.20
2018-04-10T12:37:19.724Z,12.53
2018-04-10T12:39:45.762Z,12.73
2018-04-10T12:42:11.776Z,12.50
2018-04-10T12:44:38.013Z,11.30
2018-04-10T12:47:04.055Z,10.90
2018-04-10T12:49:30.987Z,13.63
2018-04-10T12:51:57.341Z,10.30
2018-04-10T12:54:23.440Z,9.97
2018-04-10T12:56:49.626Z,11.17
2018-04-10T12:59:15.744Z,11.57
2018-04-10T13:01:41.870Z,10.13
2018-04-10T13:04:07.912Z,9.60
2018-04-10T13:06:34.102Z,11.30
2018-04-10T13:09:00.416Z,14.13
2018-04-10T13:11:26.600Z,12.60
2018-04-10T13:13:52.775Z,13.00
2018-04-10T13:16:19.828Z,12.70
2018-04-10T13:18:45.956Z,12.40
2018-04-10T13:21:12.036Z,12.27
2018-04-10T13:23:38.150Z,11.53
2018-04-10T13:26:04.177Z,11.63
2018-04-10T13:28:30.309Z,12.27
2018-04-10T13:31:03.284Z,12.17
2018-04-10T13:33:29.303Z,13.03
2018-04-10T13:35:55.480Z,11.07
2018-04-10T13:38:21.574Z,10.77
2018-04-10T13:40:47.664Z,11.53
2018-04-10T13:43:13.810Z,10.93
2018-04-10T13:45:40.186Z,11.10
2018-04-10T13:48:06.248Z,11.07
2018-04-10T13:50:32.284Z,12.07
2018-04-10T13:52:58.332Z,12.57
2018-04-10T13:55:24.553Z,11.20
2018-04-10T13:57:50.597Z,11.43
2018-04-10T14:00:17.273Z,10.23
2018-04-10T14:02:43.440Z,10.63
2018-04-10T14:05:09.516Z,11.30
2018-04-10T14:07:35.616Z,10.67
2018-04-10T14:10:01.689Z,11.40
2018-04-10T14:12:27.807Z,10.07
2018-04-10T14:14:53.926Z,11.33
2018-04-10T14:17:20.002Z,10.30
2018-04-10T14:19:46.177Z,10.50
2018-04-10T14:22:12.491Z,9.30
2018-04-10T14:24:38.535Z,8.60
2018-04-10T14:27:04.816Z,9.27
2018-04-10T14:29:31.863Z,8.73
2018-04-10T14:31:58.038Z,8.37
2018-04-10T14:34:24.117Z,8.80
2018-04-10T14:36:50.272Z,9.27
2018-04-10T14:39:16.979Z,7.77
2018-04-10T14:41:43.158Z,7.63
2018-04-10T14:44:09.193Z,7.27
2018-04-10T14:46:35.270Z,10.33
2018-04-10T14:49:01.467Z,9.23
2018-04-10T14:51:27.465Z,7.90
2018-04-10T14:53:53.511Z,8.93
2018-04-10T14:56:19.632Z,8.73
2018-04-10T14:58:45.690Z,10.17
2018-04-10T15:01:11.788Z,9.27
2018-04-10T15:03:37.852Z,8.90
2018-04-10T15:06:04.235Z,9.90
2018-04-10T15:08:30.245Z,10.70
2018-04-10T15:10:56.535Z,10.17
2018-04-10T15:13:22.960Z,10.77
2018-04-10T15:15:48.985Z,11.47
2018-04-10T15:18:15.058Z,11.97
2018-04-10T15:20:41.587Z,12.30
2018-04-10T15:23:07.678Z,11.93
2018-04-10T15:25:33.704Z,11.50
2018-04-10T15:27:59.798Z,12.53
2018-04-10T15:30:26.445Z,11.97
2018-04-10T15:32:52.842Z,13.17
2018-04-10T15:35:19.003Z,14.00
2018-04-10T15:37:45.219Z,13.37
2018-04-10T15:40:11.265Z,14.40
2018-04-10T15:42:37.295Z,15.43
2018-04-10T15:45:03.499Z,12.80
2018-04-10T15:47:29.717Z,14.00
2018-04-10T15:49:55.773Z,14.57
2018-04-10T15:52:21.785Z,14.00
2018-04-10T15:54:47.827Z,13.27
2018-04-10T15:57:14.085Z,13.10
2018-04-10T15:59:40.141Z,13.27
2018-04-10T16:02:06.268Z,12.33
2018-04-10T16:04:32.512Z,13.63
2018-04-10T16:06:58.751Z,14.57
2018-04-10T16:09:24.977Z,13.27
2018-04-10T16:11:51.187Z,13.50
2018-04-10T16:14:17.253Z,13.47
2018-04-10T16:16:43.311Z,12.20
2018-04-10T16:19:09.361Z,12.63
2018-04-10T16:21:35.375Z,15.67
2018-04-10T16:24:01.420Z,14.67
2018-04-10T16:26:27.438Z,12.73
2018-04-10T16:28:53.475Z,13.53
2018-04-10T16:31:19.503Z,12.30
2018-04-10T16:33:45.554Z,16.17
2018-04-10T16:36:11.656Z,12.73
2018-04-10T16:38:37.682Z,12.63
2018-04-10T16:41:03.702Z,12.70
2018-04-10T16:43:29.681Z,13.23
2018-04-10T16:45:55.693Z,13.27
2018-04-10T16:48:21.746Z,15.13
2018-04-10T16:50:52.254Z,12.93
2018-04-10T16:53:18.341Z,14.13
2018-04-10T16:55:44.380Z,13.47
2018-04-10T16:58:10.393Z,14.97
2018-04-10T17:00:36.443Z,14.67
2018-04-10T17:03:02.535Z,14.43
2018-04-10T17:05:28.739Z,17.47
2018-04-10T17:07:54.759Z,13.80
2018-04-10T17:10:20.945Z,12.37
2018-04-10T17:12:46.996Z,13.40
2018-04-10T17:15:13.144Z,14.00
2018-04-10T17:17:39.256Z,13.53
2018-04-10T17:20:05.305Z,12.87
2018-04-10T17:22:31.341Z,13.97
2018-04-10T17:24:57.594Z,13.03
2018-04-10T17:27:23.600Z,13.23
2018-04-10T17:29:49.854Z,11.87
2018-04-10T17:32:15.916Z,13.37
2018-04-10T17:34:41.955Z,15.43
2018-04-10T17:37:08.011Z,13.73
2018-04-10T17:39:34.014Z,13.57
2018-04-10T17:42:00.108Z,13.80
2018-04-10T17:44:26.227Z,13.77
2018-04-10T17:46:52.950Z,18.70
2018-04-10T17:49:19.008Z,20.63
2018-04-10T17:51:45.077Z,24.03
2018-04-10T17:54:11.108Z,24.00
2018-04-10T17:56:37.225Z,26.30
2018-04-10T17:59:03.327Z,25.13
2018-04-10T18:01:29.416Z,26.83
2018-04-10T18:03:55.548Z,26.37
2018-04-10T18:06:21.606Z,27.57
2018-04-10T18:08:47.624Z,30.87
2018-04-10T18:11:13.661Z,30.53
2018-04-10T18:13:39.862Z,32.83
2018-04-10T18:16:05.961Z,33.40
2018-04-10T18:18:32.041Z,34.47
2018-04-10T18:20:58.095Z,31.10
2018-04-10T18:23:24.120Z,30.97
2018-04-10T18:25:50.149Z,31.67
2018-04-10T18:28:16.185Z,29.43
2018-04-10T18:30:42.243Z,29.33
2018-04-10T18:33:08.400Z,27.93
2018-04-10T18:35:34.493Z,28.30
2018-04-10T18:38:01.332Z,27.80
2018-04-10T18:40:27.374Z,25.53
2018-04-10T18:42:53.489Z,25.23
2018-04-10T18:45:19.508Z,25.87
2018-04-10T18:47:45.596Z,25.30
2018-04-10T18:50:11.654Z,24.87
2018-04-10T18:52:37.720Z,29.73
2018-04-10T18:55:03.826Z,26.10
2018-04-10T18:57:29.883Z,30.83
2018-04-10T18:59:55.943Z,26.03
2018-04-10T19:02:22.008Z,30.07
2018-04-10T19:04:48.051Z,34.90
2018-04-10T19:07:14.298Z,28.00
2018-04-10T19:09:40.457Z,31.13
2018-04-10T19:12:06.525Z,32.73
2018-04-10T19:14:32.934Z,31.03
2018-04-10T19:16:59.865Z,30.97
2018-04-10T19:19:25.945Z,33.40
2018-04-10T19:21:51.990Z,31.83
2018-04-10T19:24:18.037Z,35.83
2018-04-10T19:26:44.072Z,31.40
2018-04-10T19:29:10.153Z,32.93
2018-04-10T19:31:36.194Z,35.87
2018-04-10T19:34:02.272Z,30.70
2018-04-10T19:36:28.326Z,31.77
2018-04-10T19:38:54.456Z,33.37
2018-04-10T19:41:20.489Z,33.03
2018-04-10T19:43:46.582Z,35.87
2018-04-10T19:46:13.261Z,34.67
2018-04-10T19:48:39.307Z,43.27
2018-04-10T19:51:05.437Z,39.87
2018-04-10T19:53:31.528Z,40.13
2018-04-10T19:55:57.571Z,45.47
2018-04-10T19:58:23.570Z,40.33
2018-04-10T20:00:49.656Z,38.70
2018-04-10T20:03:15.676Z,35.87
2018-04-10T20:05:41.723Z,41.73
2018-04-10T20:08:07.807Z,38.83
2018-04-10T20:10:33.872Z,42.37
2018-04-10T20:12:59.928Z,39.30
2018-04-10T20:15:25.941Z,38.13
2018-04-10T20:17:51.947Z,43.87
2018-04-10T20:20:17.991Z,39.07
2018-04-10T20:22:44.029Z,39.77
2018-04-10T20:25:10.117Z,40.80
2018-04-10T20:27:36.185Z,45.60
2018-04-10T20:30:02.223Z,44.37
2018-04-10T20:32:28.251Z,51.70
2018-04-10T20:34:54.352Z,43.10
2018-04-10T20:37:20.396Z,47.87
2018-04-10T20:39:46.407Z,43.50
2018-04-10T20:42:12.441Z,41.87
2018-04-10T20:44:38.637Z,43.80
2018-04-10T20:47:04.828Z,45.67
2018-04-10T20:49:30.897Z,43.47
2018-04-10T20:51:56.985Z,42.97
2018-04-10T20:54:23.354Z,47.23
2018-04-10T20:56:49.578Z,52.23
2018-04-10T20:59:15.622Z,46.40
2018-04-10T21:01:41.635Z,49.27
2018-04-10T21:04:07.668Z,50.97
2018-04-10T21:06:33.706Z,55.07
2018-04-10T21:08:59.744Z,57.73
2018-04-10T21:11:25.821Z,64.97
2018-04-10T21:13:51.828Z,66.77
2018-04-10T21:16:17.882Z,62.67
2018-04-10T21:18:44.403Z,69.23
2018-04-10T21:21:10.444Z,67.47
2018-04-10T21:23:36.657Z,65.43
2018-04-10T21:26:02.790Z,69.83
2018-04-10T21:28:28.939Z,75.40
2018-04-10T21:30:55.048Z,74.13
2018-04-10T21:33:21.103Z,74.90
2018-04-10T21:35:48.148Z,78.50
2018-04-10T21:38:14.195Z,75.47
2018-04-10T21:40:40.203Z,72.90
2018-04-10T21:43:12.332Z,82.10
2018-04-10T21:45:38.423Z,88.03
2018-04-10T21:48:04.432Z,91.30
2018-04-10T21:50:30.577Z,96.20
2018-04-10T21:52:56.738Z,118.07
2018-04-10T21:55:22.784Z,107.80
2018-04-10T21:57:48.854Z,111.77
2018-04-10T22:00:14.973Z,112.30
2018-04-10T22:02:41.143Z,109.43
2018-04-10T22:05:07.244Z,113.30
2018-04-10T22:07:33.354Z,110.07
2018-04-10T22:09:59.427Z,109.17
2018-04-10T22:12:25.556Z,116.33
2018-04-10T22:14:51.648Z,118.83
2018-04-10T22:17:17.688Z,120.87
2018-04-10T22:19:43.728Z,120.67
2018-04-10T22:22:09.803Z,110.17
2018-04-10T22:24:35.837Z,109.33
2018-04-10T22:27:01.963Z,117.63
2018-04-10T22:29:28.084Z,121.13
2018-04-10T22:31:54.732Z,119.93
2018-04-10T22:34:20.933Z,103.63
2018-04-10T22:36:47.095Z,75.53
2018-04-10T22:39:13.149Z,90.23
2018-04-10T22:41:39.217Z,104.80
2018-04-10T22:44:05.345Z,165.37
2018-04-10T22:46:31.428Z,103.20
2018-04-10T22:48:57.484Z,104.37
2018-04-10T22:51:23.550Z,112.27
2018-04-10T22:53:49.660Z,98.32
2018-04-10T22:56:15.713Z,99.57
2018-04-10T22:58:41.716Z,81.60
2018-04-10T23:01:07.796Z,72.50
2018-04-10T23:03:33.878Z,61.22
2018-04-10T23:05:59.950Z,67.10
2018-04-10T23:08:26.006Z,69.18
2018-04-10T23:10:52.006Z,74.55
2018-04-10T23:13:18.003Z,71.87
2018-04-10T23:15:44.083Z,77.63
2018-04-10T23:18:10.175Z,70.32
2018-04-10T23:20:36.214Z,77.47
2018-04-10T23:23:02.259Z,82.07
2018-04-10T23:25:28.384Z,73.60
2018-04-10T23:27:54.520Z,75.67
2018-04-10T23:30:20.564Z,80.40
2018-04-10T23:32:46.558Z,67.32
2018-04-10T23:35:12.677Z,70.00
2018-04-10T23:37:38.772Z,71.85
2018-04-10T23:40:04.921Z,67.70
2018-04-10T23:42:30.993Z,70.35
2018-04-10T23:44:57.070Z,74.35
2018-04-10T23:47:23.170Z,68.15
2018-04-10T23:49:49.301Z,77.03
2018-04-10T23:52:15.327Z,74.05
2018-04-10T23:54:41.358Z,102.68
2018-04-10T23:57:07.453Z,128.57
2018-04-10T23:59:33.456Z,130.82
